NCAR-RAP Real-Time Weather Data

Output produced by METARs form (10 April 2020  07:22 UTC)
found at http://weather.rap.ucar.edu/surface/
 
KIOW 100652Z AUTO 31009KT 10SM CLR 01/M07 A3013 RMK AO2 SLP207 T00111067
KIOW 100552Z AUTO 31010KT 10SM CLR 02/M07 A3012 RMK AO2 SLP204 T00171067 10050 20017 401060006 53013
KIOW 100452Z AUTO 30011G18KT 10SM CLR 02/M07 A3011 RMK AO2 SLP200 T00171072
KIOW 100352Z AUTO 30011G19KT 10SM CLR 02/M07 A3009 RMK AO2 PK WND 30026/0310 SLP195 T00221072
KIOW 100252Z AUTO 31012G18KT 10SM CLR 03/M08 A3008 RMK AO2 SLP191 T00331083 53023
KIOW 100152Z AUTO 32012G20KT 10SM FEW065 04/M08 A3006 RMK AO2 PK WND 31026/0053 SLP182 T00391083
KIOW 100052Z AUTO 31017G27KT 10SM SCT060 04/M09 A3003 RMK AO2 PK WND 30032/0009 SLP174 T00441089
KIOW 092352Z AUTO 31019G32KT 10SM SCT065 05/M08 A3002 RMK AO2 PK WND 33035/2336 SLP170 60000 T00501083 10094 20050 53024
KIOW 092252Z AUTO 32019G36KT 10SM FEW075 SCT090 06/M11 A2998 RMK AO2 PK WND 30043/2228 SLP158 T00611106
KIOW 092152Z AUTO 32025G36KT 10SM SCT070 OVC090 07/M09 A2996 RMK AO2 PK WND 29043/2115 SLP150 T00671089
KIOW 092052Z AUTO 31024G40KT 10SM BKN075 BKN095 07/M09 A2994 RMK AO2 PK WND 32042/1957 SLP143 60000 T00721089 51019
KIOW 091952Z AUTO 29024G36KT 10SM BKN055 OVC070 08/M06 A2993 RMK AO2 PK WND 31047/1930 RAB03E13 SLP139 P0000 T00831056
KIOW 091852Z AUTO 29026G35KT 10SM SCT035 BKN050 OVC085 07/M02 A2992 RMK AO2 PK WND 31043/1829 RAB10E43 SLP134 P0000 T00721022
KIOW 091752Z AUTO 27018G27KT 10SM FEW070 BKN085 BKN110 09/M03 A2988 RMK AO2 PK WND 29037/1654 RAB09E23 SLP122 P0000 60000 T00941028 10106 20017 58009
KIOW 091652Z AUTO 31016G34KT 10SM SCT050 BKN070 OVC080 08/M06 A2991 RMK AO2 PK WND 30036/1616 SLP130 T00831056
KIOW 091552Z AUTO 29018G26KT 10SM CLR 10/M06 A2990 RMK AO2 PK WND 28029/1522 SLP128 T01001056
KIOW 091452Z AUTO 27014KT 10SM CLR 08/M03 A2991 RMK AO2 SLP131 T00831028 56013
KIOW 091352Z AUTO 27009KT 10SM CLR 06/M02 A2992 RMK AO2 SLP135 T00561017
KIOW 091252Z AUTO 28007KT 10SM CLR 03/M02 A2994 RMK AO2 SLP142 T00331022
KIOW 091152Z AUTO 28006KT 10SM CLR 02/M03 A2995 RMK AO2 SLP145 70002 T00171033 10072 20006 53002
KIOW 091052Z AUTO 26006KT 10SM CLR 01/M03 A2995 RMK AO2 SLP145 T00111033
KIOW 090952Z AUTO 31004KT 10SM CLR 03/M03 A2994 RMK AO2 SLP140 T00331033
KIOW 090852Z AUTO 30007KT 10SM CLR 04/M03 A2995 RMK AO2 SLP142 T00441033 51011